createdAt,value
2019-06-07T00:00:56.294Z,100644.09
2019-06-07T00:03:29.857Z,100645.77
2019-06-07T00:05:58.418Z,100638.92
2019-06-07T00:08:29.470Z,100636.42
2019-06-07T00:10:59.698Z,100630.92
2019-06-07T00:13:30.700Z,100630.62
2019-06-07T00:16:00.874Z,100620.94
2019-06-07T00:18:30.906Z,100623.11
2019-06-07T00:21:00.965Z,100631.25
2019-06-07T00:23:31.037Z,100611.77
2019-06-07T00:26:01.094Z,100616.61
2019-06-07T00:28:31.143Z,100623.98
2019-06-07T00:31:01.262Z,100610.30
2019-06-07T00:33:31.325Z,100607.83
2019-06-07T00:36:01.368Z,100597.20
2019-06-07T00:38:31.416Z,100592.36
2019-06-07T00:41:01.461Z,100579.05
2019-06-07T00:43:31.506Z,100578.02
2019-06-07T00:46:01.559Z,100574.72
2019-06-07T00:48:32.983Z,100571.19
2019-06-07T00:51:03.352Z,100568.68
2019-06-07T00:53:34.364Z,100565.38
2019-06-07T00:56:04.467Z,100556.34
2019-06-07T00:58:34.545Z,100557.38
2019-06-07T01:01:04.614Z,100535.01
2019-06-07T01:03:34.671Z,100535.01
2019-06-07T01:06:04.821Z,100542.01
2019-06-07T01:08:34.924Z,100536.88
2019-06-07T01:11:04.974Z,100536.54
2019-06-07T01:13:35.024Z,100526.70
2019-06-07T01:16:05.084Z,100517.70
2019-06-07T01:18:39.084Z,100502.03
2019-06-07T01:21:06.881Z,100506.73
2019-06-07T01:26:08.678Z,100494.91
2019-06-07T01:28:38.718Z,100484.44
2019-06-07T01:31:08.772Z,100485.61
2019-06-07T01:33:50.892Z,100480.77
2019-06-07T01:36:10.667Z,100476.23
2019-06-07T01:38:40.659Z,100474.73
2019-06-07T01:41:10.705Z,100474.73
2019-06-07T01:43:40.756Z,100469.07
2019-06-07T01:46:10.811Z,100471.44
2019-06-07T01:48:49.560Z,100467.11
2019-06-07T01:51:12.609Z,100472.17
2019-06-07T01:53:42.656Z,100455.52
2019-06-07T01:56:12.728Z,100457.69
2019-06-07T01:58:43.585Z,100451.55
2019-06-07T02:01:13.731Z,100450.22
2019-06-07T02:03:43.769Z,100440.59
2019-06-07T02:06:13.840Z,100426.27
2019-06-07T02:08:43.880Z,100431.89
2019-06-07T02:11:13.949Z,100431.89
2019-06-07T02:13:44.018Z,100424.59
2019-06-07T02:16:14.048Z,100424.59
2019-06-07T02:19:01.316Z,100422.94
2019-06-07T02:21:15.860Z,100412.61
2019-06-07T02:23:45.919Z,100406.80
2019-06-07T02:26:15.957Z,100394.31
2019-06-07T02:28:46.048Z,100394.31
2019-06-07T02:31:16.128Z,100394.81
2019-06-07T02:33:46.166Z,100394.81
2019-06-07T02:36:16.228Z,100398.98
2019-06-07T02:38:47.284Z,100398.02
2019-06-07T02:41:17.372Z,100398.02
2019-06-07T02:43:47.414Z,100401.71
2019-06-07T02:46:34.298Z,100399.34
2019-06-07T02:48:56.576Z,100379.23
2019-06-07T02:51:32.664Z,100378.43
2019-06-07T02:53:58.370Z,100378.43
2019-06-07T02:56:42.101Z,100379.06
2019-06-07T02:59:00.193Z,100367.58
2019-06-07T03:01:35.859Z,100359.71
2019-06-07T03:04:02.275Z,100359.71
2019-06-07T03:06:38.733Z,100333.44
2019-06-07T03:09:05.542Z,100333.44
2019-06-07T03:11:37.263Z,100334.10
2019-06-07T03:14:07.336Z,100321.82
2019-06-07T03:16:43.173Z,100317.49
2019-06-07T03:19:17.938Z,100316.36
2019-06-07T03:21:47.984Z,100321.36
2019-06-07T03:24:18.049Z,100304.87
2019-06-07T03:27:32.168Z,100306.54
2019-06-07T03:29:19.917Z,100308.88
2019-06-07T03:31:49.995Z,100313.53
2019-06-07T03:34:20.055Z,100308.03
2019-06-07T03:36:50.151Z,100301.01
2019-06-07T03:39:20.191Z,100301.51
2019-06-07T03:42:05.232Z,100295.19
2019-06-07T03:44:21.985Z,100301.64
2019-06-07T03:46:52.052Z,100295.31
2019-06-07T03:49:22.176Z,100277.70
2019-06-07T03:51:52.200Z,100268.54
2019-06-07T03:54:22.269Z,100268.54
2019-06-07T03:56:52.317Z,100270.66
2019-06-07T03:59:22.386Z,100275.20
2019-06-07T04:01:52.432Z,100265.05
2019-06-07T04:04:22.541Z,100265.55
2019-06-07T04:06:52.603Z,100259.55
2019-06-07T04:09:22.648Z,100260.55
2019-06-07T04:11:52.750Z,100262.62
2019-06-07T04:14:23.421Z,100269.55
2019-06-07T04:16:53.623Z,100256.94
2019-06-07T04:19:23.682Z,100255.27
2019-06-07T04:21:53.747Z,100246.98
2019-06-07T04:24:23.816Z,100252.77
2019-06-07T04:26:53.868Z,100255.94
2019-06-07T04:29:32.884Z,100261.30
2019-06-07T04:31:55.659Z,100248.31
2019-06-07T04:34:25.742Z,100248.31
2019-06-07T04:36:59.363Z,100239.95
2019-06-07T04:39:29.857Z,100249.56
2019-06-07T04:41:59.313Z,100228.30
2019-06-07T04:44:29.389Z,100228.30
2019-06-07T04:46:59.436Z,100225.64
2019-06-07T04:49:30.522Z,100226.31
2019-06-07T04:52:01.239Z,100216.52
2019-06-07T04:54:32.988Z,100214.36
2019-06-07T04:57:03.040Z,100195.55
2019-06-07T05:00:04.330Z,100195.55
2019-06-07T05:02:04.884Z,100192.10
2019-06-07T05:04:36.285Z,100185.11
2019-06-07T05:07:06.730Z,100193.06
2019-06-07T05:09:39.430Z,100185.41
2019-06-07T05:12:08.549Z,100178.75
2019-06-07T05:14:39.980Z,100174.75
2019-06-07T05:17:10.437Z,100178.58
2019-06-07T05:19:43.724Z,100182.69
2019-06-07T05:22:12.176Z,100176.02
2019-06-07T05:24:43.933Z,100175.86
2019-06-07T05:27:14.174Z,100166.54
2019-06-07T05:30:06.342Z,100169.16
2019-06-07T05:32:16.008Z,100161.38
2019-06-07T05:34:47.239Z,100152.39
2019-06-07T05:37:17.706Z,100153.38
2019-06-07T05:39:47.756Z,100135.69
2019-06-07T05:42:17.828Z,100134.52
2019-06-07T05:44:47.896Z,100135.14
2019-06-07T05:47:17.947Z,100129.31
2019-06-07T05:49:47.997Z,100132.97
2019-06-07T05:52:19.099Z,100124.97
2019-06-07T05:54:49.149Z,100119.31
2019-06-07T05:57:19.226Z,100108.31
2019-06-07T05:59:49.271Z,100103.61
2019-06-07T06:02:24.622Z,100100.32
2019-06-07T06:04:51.126Z,100087.67
2019-06-07T06:07:21.179Z,100083.35
2019-06-07T06:09:51.232Z,100067.37
2019-06-07T06:12:34.661Z,100067.37
2019-06-07T06:14:53.086Z,100077.70
2019-06-07T06:17:23.129Z,100075.02
2019-06-07T06:19:53.742Z,100070.02
2019-06-07T06:22:23.816Z,100060.77
2019-06-07T06:25:29.895Z,100070.13
2019-06-07T06:28:03.551Z,100053.65
2019-06-07T06:29:57.450Z,100045.25
2019-06-07T06:32:41.969Z,100045.25
2019-06-07T06:34:59.246Z,100045.91
2019-06-07T06:37:29.276Z,100043.39
2019-06-07T06:39:59.352Z,100044.34
2019-06-07T06:42:29.394Z,100036.82
2019-06-07T06:44:59.448Z,100036.49
2019-06-07T06:47:29.516Z,100036.49
2019-06-07T06:50:01.198Z,100039.48
2019-06-07T06:52:31.321Z,100045.49
2019-06-07T06:55:01.481Z,100045.49
2019-06-07T06:57:32.464Z,100032.06
2019-06-07T07:00:02.562Z,100030.41
2019-06-07T07:02:32.702Z,100033.99
2019-06-07T07:05:02.771Z,100018.34
2019-06-07T07:07:32.837Z,100018.34
2019-06-07T07:10:03.315Z,100026.86
2019-06-07T07:12:33.300Z,100031.36
2019-06-07T07:15:03.364Z,100031.36
2019-06-07T07:17:50.514Z,100034.63
2019-06-07T07:20:05.740Z,100032.21
2019-06-07T07:22:35.780Z,100036.30
2019-06-07T07:25:06.062Z,100032.58
2019-06-07T07:27:36.115Z,100025.59
2019-06-07T07:30:35.395Z,100029.23
2019-06-07T07:32:38.357Z,100020.59
2019-06-07T07:35:08.422Z,100020.59
2019-06-07T07:37:38.480Z,100023.25
2019-06-07T07:40:55.646Z,100021.24
2019-06-07T07:42:40.468Z,100017.36
2019-06-07T07:45:10.544Z,100005.25
2019-06-07T07:47:58.373Z,99998.84
2019-06-07T07:50:12.460Z,99988.11
2019-06-07T07:52:42.496Z,99988.11
2019-06-07T07:55:12.646Z,99987.13
2019-06-07T07:57:42.672Z,99987.88
2019-06-07T08:00:49.376Z,99983.28
2019-06-07T08:02:48.358Z,99978.03
2019-06-07T08:05:28.711Z,99975.63
2019-06-07T08:07:53.095Z,99967.95
2019-06-07T08:10:19.990Z,99966.77
2019-06-07T08:13:09.037Z,99962.30
2019-06-07T08:15:21.753Z,99951.92
2019-06-07T08:17:59.656Z,99951.92
2019-06-07T08:20:24.591Z,99957.45
2019-06-07T08:22:58.791Z,99955.79
2019-06-07T08:25:26.393Z,99952.41
2019-06-07T08:27:58.617Z,99943.00
2019-06-07T08:30:50.234Z,99943.00
2019-06-07T08:33:23.913Z,99936.91
2019-06-07T08:36:03.653Z,99929.66
2019-06-07T08:40:35.354Z,99924.47
2019-06-07T08:43:18.165Z,99908.57
2019-06-07T08:45:37.119Z,99905.46
2019-06-07T08:48:26.655Z,99893.33
2019-06-07T08:50:38.943Z,99880.61
2019-06-07T08:53:12.267Z,99880.61
2019-06-07T08:55:40.729Z,99880.93
2019-06-07T08:58:10.775Z,99875.78
2019-06-07T09:00:46.031Z,99863.67
2019-06-07T09:03:13.567Z,99855.08
2019-06-07T09:05:43.639Z,99845.92
2019-06-07T09:08:29.247Z,99820.63
2019-06-07T09:10:45.639Z,99820.63
2019-06-07T09:13:15.682Z,99800.53
2019-06-07T09:15:45.729Z,99788.66
2019-06-07T09:18:41.824Z,99784.20
2019-06-07T09:20:48.637Z,99772.09
2019-06-07T09:23:18.680Z,99766.12
2019-06-07T09:25:57.482Z,99765.88
2019-06-07T09:28:21.008Z,99765.80
2019-06-07T09:30:51.107Z,99767.09
2019-06-07T09:33:21.169Z,99761.16
2019-06-07T09:35:51.223Z,99750.92
2019-06-07T09:38:26.584Z,99753.18
2019-06-07T09:40:53.007Z,99745.18
2019-06-07T09:45:57.983Z,99732.48
2019-06-07T09:49:09.870Z,99732.48
2019-06-07T09:51:02.153Z,99727.98
2019-06-07T09:53:31.056Z,99729.19
2019-06-07T09:56:05.730Z,99717.48
2019-06-07T09:58:51.880Z,99719.99
2019-06-07T10:01:12.315Z,99715.70
2019-06-07T10:03:36.404Z,99704.28
2019-06-07T10:06:09.847Z,99705.03
2019-06-07T10:09:57.031Z,99696.41
2019-06-07T10:11:09.923Z,99687.88
2019-06-07T10:13:40.041Z,99679.78
2019-06-07T10:16:10.041Z,99685.56
2019-06-07T10:18:40.104Z,99693.75
2019-06-07T10:21:14.799Z,99700.80
2019-06-07T10:23:41.942Z,99676.88
2019-06-07T10:26:12.014Z,99672.69
2019-06-07T10:28:42.048Z,99686.59
2019-06-07T10:31:12.377Z,99687.41
2019-06-07T10:33:42.403Z,99687.67
2019-06-07T10:36:12.431Z,99685.36
2019-06-07T10:38:42.484Z,99685.36
2019-06-07T10:41:12.572Z,99694.12
2019-06-07T10:43:42.601Z,99686.84
2019-06-07T10:46:12.692Z,99686.84
2019-06-07T10:48:42.753Z,99695.41
2019-06-07T10:51:14.794Z,99682.52
2019-06-07T10:53:44.548Z,99680.58
2019-06-07T10:56:15.558Z,99680.58
2019-06-07T10:58:45.596Z,99687.13
2019-06-07T11:01:15.615Z,99680.87
2019-06-07T11:03:45.659Z,99681.83
2019-06-07T11:06:15.703Z,99681.50
2019-06-07T11:08:45.748Z,99669.53
2019-06-07T11:11:15.813Z,99681.06
2019-06-07T11:13:45.860Z,99678.12
2019-06-07T11:16:15.910Z,99668.19
2019-06-07T11:18:45.941Z,99668.19
2019-06-07T11:21:16.100Z,99679.27
2019-06-07T11:23:46.164Z,99681.45
2019-06-07T11:26:16.192Z,99674.64
2019-06-07T11:28:46.224Z,99678.73
2019-06-07T11:31:16.297Z,99675.70
2019-06-07T11:33:46.700Z,99673.36
2019-06-07T11:36:16.775Z,99674.14
2019-06-07T11:38:46.812Z,99672.30
2019-06-07T11:41:17.854Z,99655.77
2019-06-07T11:43:47.936Z,99659.72
2019-06-07T11:46:17.972Z,99661.83
2019-06-07T11:48:48.017Z,99658.43
2019-06-07T11:51:18.933Z,99657.70
2019-06-07T11:53:48.986Z,99664.72
2019-06-07T11:56:19.164Z,99667.34
2019-06-07T11:58:49.196Z,99665.83
2019-06-07T12:01:19.252Z,99664.40
2019-06-07T12:03:49.307Z,99656.44
2019-06-07T12:06:19.330Z,99658.32
2019-06-07T12:08:49.393Z,99658.20
2019-06-07T12:11:19.446Z,99666.84
2019-06-07T12:13:49.471Z,99663.84
2019-06-07T12:16:19.639Z,99654.81
2019-06-07T12:18:49.681Z,99669.71
2019-06-07T12:21:19.938Z,99665.55
2019-06-07T12:23:49.997Z,99670.38
2019-06-07T12:26:20.661Z,99673.36
2019-06-07T12:28:50.786Z,99670.09
2019-06-07T12:31:21.169Z,99667.67
2019-06-07T12:33:51.478Z,99662.23
2019-06-07T12:36:22.002Z,99652.20
2019-06-07T12:38:52.111Z,99647.70
2019-06-07T12:41:22.441Z,99654.30
2019-06-07T12:43:53.394Z,99652.06
2019-06-07T12:46:28.161Z,99656.28
2019-06-07T12:48:55.187Z,99655.16
2019-06-07T12:51:25.260Z,99659.60
2019-06-07T12:53:55.287Z,99653.65
2019-06-07T12:56:25.359Z,99660.02
2019-06-07T12:58:55.383Z,99660.14
2019-06-07T13:01:25.446Z,99656.09
2019-06-07T13:03:55.471Z,99661.53
2019-06-07T13:06:25.520Z,99662.88
2019-06-07T13:08:55.570Z,99650.78
2019-06-07T13:11:29.574Z,99658.48
2019-06-07T13:13:57.381Z,99658.40
2019-06-07T13:16:28.486Z,99665.99
2019-06-07T13:18:58.670Z,99662.72
2019-06-07T13:21:28.797Z,99657.69
2019-06-07T13:23:58.805Z,99661.69
2019-06-07T13:26:28.831Z,99656.13
2019-06-07T13:28:58.886Z,99649.94
2019-06-07T13:31:28.932Z,99653.20
2019-06-07T13:33:59.040Z,99652.93
2019-06-07T13:36:29.074Z,99651.47
2019-06-07T13:38:59.165Z,99649.45
2019-06-07T13:41:40.510Z,99656.63
2019-06-07T13:44:00.971Z,99656.44
2019-06-07T13:46:31.118Z,99657.64
2019-06-07T13:49:01.175Z,99650.13
2019-06-07T13:51:33.345Z,99654.33
2019-06-07T13:54:03.240Z,99654.55
2019-06-07T13:56:33.272Z,99659.67
2019-06-07T13:59:03.405Z,99664.18
2019-06-07T14:01:33.493Z,99659.45
2019-06-07T14:04:03.612Z,99661.81
2019-06-07T14:06:33.647Z,99662.64
2019-06-07T14:09:04.421Z,99664.67
2019-06-07T14:11:49.412Z,99665.60
2019-06-07T14:14:06.502Z,99675.38
2019-06-07T14:16:36.538Z,99683.61
2019-06-07T14:19:06.574Z,99687.67
2019-06-07T14:21:36.680Z,99692.10
2019-06-07T14:24:06.725Z,99688.92
2019-06-07T14:26:36.796Z,99691.42
2019-06-07T14:29:06.843Z,99688.11
2019-06-07T14:31:37.864Z,99681.00
2019-06-07T14:34:08.027Z,99669.09
2019-06-07T14:36:38.041Z,99659.23
2019-06-07T14:39:08.100Z,99665.80
2019-06-07T14:41:38.150Z,99668.78
2019-06-07T14:44:08.190Z,99677.08
2019-06-07T14:46:38.273Z,99676.36
2019-06-07T14:49:08.317Z,99679.87
2019-06-07T14:51:38.349Z,99678.53
2019-06-07T14:54:08.400Z,99679.36
2019-06-07T14:56:38.423Z,99674.84
2019-06-07T14:59:08.492Z,99686.36
2019-06-07T15:01:40.720Z,99679.67
2019-06-07T15:04:10.305Z,99679.47
2019-06-07T15:06:40.373Z,99687.49
2019-06-07T15:09:10.412Z,99687.69
2019-06-07T15:11:40.576Z,99685.33
2019-06-07T15:14:11.567Z,99693.47
2019-06-07T15:16:41.614Z,99691.70
2019-06-07T15:19:11.648Z,99694.69
2019-06-07T15:21:42.828Z,99695.20
2019-06-07T15:24:12.880Z,99700.98
2019-06-07T15:26:42.951Z,99693.66
2019-06-07T15:29:13.013Z,99691.70
2019-06-07T15:31:43.065Z,99689.45
2019-06-07T15:34:13.114Z,99689.66
2019-06-07T15:36:43.168Z,99692.53
2019-06-07T15:39:13.225Z,99686.16
2019-06-07T15:41:43.254Z,99689.33
2019-06-07T15:44:13.363Z,99694.69
2019-06-07T15:46:43.428Z,99699.52
2019-06-07T15:49:13.459Z,99700.56
2019-06-07T15:51:43.530Z,99709.64
2019-06-07T15:54:13.586Z,99715.30
2019-06-07T15:56:43.611Z,99715.50
2019-06-07T15:59:13.688Z,99712.29
2019-06-07T16:01:43.806Z,99712.68
2019-06-07T16:04:13.890Z,99717.33
2019-06-07T16:06:43.978Z,99714.73
2019-06-07T16:09:14.034Z,99719.49
2019-06-07T16:11:44.365Z,99720.52
2019-06-07T16:14:14.769Z,99725.75
2019-06-07T16:16:44.825Z,99722.56
2019-06-07T16:19:14.856Z,99732.55
2019-06-07T16:21:44.947Z,99731.92
2019-06-07T16:24:14.993Z,99726.89
2019-06-07T16:26:45.054Z,99730.66
2019-06-07T16:29:15.095Z,99733.96
2019-06-07T16:31:45.266Z,99739.19
2019-06-07T16:34:15.299Z,99746.19
2019-06-07T16:36:46.822Z,99738.98
2019-06-07T16:39:16.989Z,99745.03
2019-06-07T16:41:47.052Z,99742.67
2019-06-07T16:44:17.081Z,99744.52
2019-06-07T16:46:47.147Z,99744.83
2019-06-07T16:49:17.189Z,99742.47
2019-06-07T16:51:47.225Z,99756.23
2019-06-07T16:54:17.279Z,99763.22
2019-06-07T16:56:51.119Z,99764.98
2019-06-07T16:59:20.891Z,99763.13
2019-06-07T17:01:51.230Z,99771.93
2019-06-07T17:04:21.311Z,99765.48
2019-06-07T17:06:51.330Z,99771.10
2019-06-07T17:09:21.391Z,99770.88
2019-06-07T17:11:51.424Z,99775.58
2019-06-07T17:14:21.479Z,99785.05
2019-06-07T17:16:51.522Z,99777.43
2019-06-07T17:19:21.579Z,99774.86
2019-06-07T17:21:51.646Z,99785.02
2019-06-07T17:24:21.699Z,99777.03
2019-06-07T17:26:51.729Z,99781.27
2019-06-07T17:29:21.787Z,99782.16
2019-06-07T17:31:51.820Z,99786.89
2019-06-07T17:34:21.879Z,99794.36
2019-06-07T17:36:52.757Z,99807.02
2019-06-07T17:39:22.816Z,99801.30
2019-06-07T17:42:01.778Z,99808.55
2019-06-07T17:44:24.600Z,99807.21
2019-06-07T17:46:54.628Z,99815.86
2019-06-07T17:49:24.682Z,99817.03
2019-06-07T17:51:54.750Z,99819.33
2019-06-07T17:54:24.791Z,99832.05
2019-06-07T17:56:54.942Z,99845.39
2019-06-07T17:59:24.966Z,99840.97
2019-06-07T18:02:13.279Z,99841.48
2019-06-07T18:04:27.768Z,99848.41
2019-06-07T18:06:57.961Z,99852.31
2019-06-07T18:09:28.670Z,99863.31
2019-06-07T18:11:58.807Z,99857.10
2019-06-07T18:14:28.823Z,99866.19
2019-06-07T18:16:59.004Z,99882.80
2019-06-07T18:19:29.066Z,99889.23
2019-06-07T18:21:59.296Z,99874.32
2019-06-07T18:24:29.355Z,99874.27
2019-06-07T18:26:59.425Z,99883.03
2019-06-07T18:29:29.672Z,99885.05
2019-06-07T18:32:00.341Z,99890.39
2019-06-07T18:34:31.395Z,99882.52
2019-06-07T18:37:01.488Z,99893.83
2019-06-07T18:39:31.561Z,99898.59
2019-06-07T18:42:01.637Z,99898.22
2019-06-07T18:44:31.704Z,99902.23
2019-06-07T18:47:01.804Z,99915.00
2019-06-07T18:49:31.857Z,99924.70
2019-06-07T18:52:36.024Z,99927.25
2019-06-07T18:55:06.157Z,99925.20
2019-06-07T18:57:36.244Z,99945.55
2019-06-07T19:00:07.000Z,99944.11
2019-06-07T19:02:37.091Z,99944.61
2019-06-07T19:05:08.283Z,99944.61
2019-06-07T19:07:38.538Z,99942.27
2019-06-07T19:10:08.614Z,99953.70
2019-06-07T19:12:38.765Z,99971.17
2019-06-07T19:15:09.055Z,99963.03
2019-06-07T19:17:39.251Z,99963.03
2019-06-07T19:20:09.466Z,99962.20
2019-06-07T19:22:39.898Z,99968.36
2019-06-07T19:25:09.971Z,99983.85
2019-06-07T19:27:40.058Z,100002.25
2019-06-07T19:30:10.176Z,100002.25
2019-06-07T19:32:40.223Z,100005.78
2019-06-07T19:35:11.280Z,100006.94
2019-06-07T19:37:41.354Z,100018.42
2019-06-07T19:40:12.617Z,100011.38
2019-06-07T19:42:42.667Z,100020.09
2019-06-07T19:45:29.564Z,100020.09
2019-06-07T19:47:45.857Z,100026.60
2019-06-07T19:50:15.927Z,100025.92
2019-06-07T19:52:45.978Z,100041.92
2019-06-07T19:55:16.081Z,100048.58
2019-06-07T19:57:46.143Z,100048.58
2019-06-07T20:00:16.184Z,100051.09
2019-06-07T20:02:46.332Z,100063.75
2019-06-07T20:05:17.968Z,100061.76
2019-06-07T20:07:47.993Z,100069.25
2019-06-07T20:10:18.071Z,100072.60
2019-06-07T20:12:48.118Z,100078.08
2019-06-07T20:15:28.448Z,100083.91
2019-06-07T20:17:50.323Z,100094.76
2019-06-07T20:20:20.395Z,100095.26
2019-06-07T20:22:50.548Z,100103.25
2019-06-07T20:25:20.604Z,100107.64
2019-06-07T20:27:51.618Z,100115.98
2019-06-07T20:30:22.661Z,100122.98
2019-06-07T20:32:52.704Z,100120.31
2019-06-07T20:35:22.787Z,100121.31
2019-06-07T20:37:52.922Z,100131.65
2019-06-07T20:40:24.839Z,100132.30
2019-06-07T20:42:54.761Z,100139.47
2019-06-07T20:45:33.729Z,100139.47
2019-06-07T20:47:57.984Z,100145.96
2019-06-07T20:50:28.198Z,100148.45
2019-06-07T20:52:59.806Z,100144.95
2019-06-07T20:55:30.014Z,100154.30
2019-06-07T20:58:00.828Z,100162.69
2019-06-07T21:00:31.977Z,100167.03
2019-06-07T21:03:03.207Z,100162.02
2019-06-07T21:05:33.353Z,100164.19
2019-06-07T21:08:04.184Z,100172.02
2019-06-07T21:10:35.151Z,100166.00
2019-06-07T21:13:05.914Z,100166.00
2019-06-07T21:15:48.383Z,100177.62
2019-06-07T21:18:15.738Z,100180.28
2019-06-07T21:20:40.617Z,100177.17
2019-06-07T21:23:11.981Z,100177.17
2019-06-07T21:25:42.249Z,100191.28
2019-06-07T21:28:12.369Z,100184.96
2019-06-07T21:30:42.414Z,100188.33
2019-06-07T21:33:12.503Z,100199.62
2019-06-07T21:35:42.693Z,100202.28
2019-06-07T21:38:12.916Z,100195.83
2019-06-07T21:40:43.031Z,100206.98
2019-06-07T21:43:13.079Z,100199.17
2019-06-07T21:45:43.301Z,100211.94
2019-06-07T21:48:14.412Z,100211.77
2019-06-07T21:50:45.788Z,100208.10
2019-06-07T21:53:15.876Z,100211.22
2019-06-07T21:55:45.946Z,100217.43
2019-06-07T21:58:16.017Z,100209.89
2019-06-07T22:01:23.813Z,100215.27
2019-06-07T22:03:53.886Z,100213.61
2019-06-07T22:06:23.962Z,100206.78
2019-06-07T22:08:54.032Z,100217.66
2019-06-07T22:11:24.176Z,100229.98
2019-06-07T22:13:54.224Z,100228.31
2019-06-07T22:16:29.244Z,100232.94
2019-06-07T22:18:56.039Z,100222.33
2019-06-07T22:21:26.130Z,100231.98
2019-06-07T22:23:56.283Z,100231.98
2019-06-07T22:26:26.377Z,100244.15
2019-06-07T22:28:56.602Z,100249.65
2019-06-07T22:31:26.628Z,100249.82
2019-06-07T22:33:56.674Z,100256.03
2019-06-07T22:36:26.726Z,100253.69
2019-06-07T22:38:56.816Z,100264.69
2019-06-07T22:41:26.873Z,100265.90
2019-06-07T22:43:56.918Z,100265.90
2019-06-07T22:46:36.806Z,100274.69
2019-06-07T22:48:58.768Z,100278.18
2019-06-07T22:51:28.824Z,100288.17
2019-06-07T22:53:58.902Z,100288.17
2019-06-07T22:56:42.835Z,100296.05
2019-06-07T22:59:16.734Z,100296.05
2019-06-07T23:01:44.666Z,100303.38
2019-06-07T23:04:14.766Z,100313.08
2019-06-07T23:06:44.849Z,100313.08
2019-06-07T23:09:14.977Z,100314.25
2019-06-07T23:11:45.052Z,100317.70
2019-06-07T23:14:15.429Z,100325.41
2019-06-07T23:16:54.836Z,100328.37
2019-06-07T23:19:18.294Z,100326.53
2019-06-07T23:21:48.387Z,100324.70
2019-06-07T23:24:20.114Z,100336.36
2019-06-07T23:26:51.384Z,100342.34
2019-06-07T23:29:21.393Z,100347.52
2019-06-07T23:31:51.495Z,100343.98
2019-06-07T23:34:22.597Z,100343.98
2019-06-07T23:36:52.649Z,100361.47
2019-06-07T23:39:23.669Z,100351.30
2019-06-07T23:41:53.726Z,100352.30
2019-06-07T23:44:23.795Z,100359.30
2019-06-07T23:46:53.855Z,100355.97
2019-06-07T23:49:24.003Z,100374.45
2019-06-07T23:51:55.025Z,100386.62
2019-06-07T23:54:25.065Z,100386.62
2019-06-07T23:56:55.165Z,100386.45
2019-06-07T23:59:25.189Z,100400.98
